sensor_id;sensor_type;location;lat;lon;timestamp;P1;durP1;ratioP1;P2;durP2;ratioP2
19998;SDS011;10160;50.926;4.374;2023-08-12T00:01:38;12.32;;;3.70;;
19998;SDS011;10160;50.926;4.374;2023-08-12T00:04:07;10.73;;;4.00;;
19998;SDS011;10160;50.926;4.374;2023-08-12T00:06:32;11.70;;;4.07;;
19998;SDS011;10160;50.926;4.374;2023-08-12T00:08:58;9.80;;;3.85;;
19998;SDS011;10160;50.926;4.374;2023-08-12T00:11:28;14.05;;;4.30;;
19998;SDS011;10160;50.926;4.374;2023-08-12T00:13:54;10.52;;;3.80;;
19998;SDS011;10160;50.926;4.374;2023-08-12T00:16:20;10.63;;;3.45;;
19998;SDS011;10160;50.926;4.374;2023-08-12T00:18:45;11.20;;;4.18;;
19998;SDS011;10160;50.926;4.374;2023-08-12T00:21:11;12.43;;;3.88;;
19998;SDS011;10160;50.926;4.374;2023-08-12T00:23:37;9.90;;;3.92;;
19998;SDS011;10160;50.926;4.374;2023-08-12T00:26:09;10.15;;;3.85;;
19998;SDS011;10160;50.926;4.374;2023-08-12T00:28:35;9.75;;;4.05;;
19998;SDS011;10160;50.926;4.374;2023-08-12T00:31:01;9.80;;;4.50;;
19998;SDS011;10160;50.926;4.374;2023-08-12T00:33:27;11.07;;;4.32;;
19998;SDS011;10160;50.926;4.374;2023-08-12T00:35:52;11.25;;;4.07;;
19998;SDS011;10160;50.926;4.374;2023-08-12T00:38:18;10.63;;;4.25;;
19998;SDS011;10160;50.926;4.374;2023-08-12T00:40:44;11.05;;;4.43;;
19998;SDS011;10160;50.926;4.374;2023-08-12T00:43:09;11.35;;;4.30;;
19998;SDS011;10160;50.926;4.374;2023-08-12T00:45:35;10.35;;;4.30;;
19998;SDS011;10160;50.926;4.374;2023-08-12T00:48:01;10.45;;;3.95;;
19998;SDS011;10160;50.926;4.374;2023-08-12T00:50:30;10.65;;;4.45;;
19998;SDS011;10160;50.926;4.374;2023-08-12T00:52:57;12.73;;;4.30;;
19998;SDS011;10160;50.926;4.374;2023-08-12T00:55:26;14.00;;;4.65;;
19998;SDS011;10160;50.926;4.374;2023-08-12T00:57:52;8.98;;;4.25;;
19998;SDS011;10160;50.926;4.374;2023-08-12T01:00:18;14.63;;;4.68;;
19998;SDS011;10160;50.926;4.374;2023-08-12T01:02:46;10.43;;;5.20;;
19998;SDS011;10160;50.926;4.374;2023-08-12T01:05:14;11.13;;;4.82;;
19998;SDS011;10160;50.926;4.374;2023-08-12T01:07:40;11.13;;;4.43;;
19998;SDS011;10160;50.926;4.374;2023-08-12T01:10:09;9.88;;;4.45;;
19998;SDS011;10160;50.926;4.374;2023-08-12T01:15:40;15.60;;;5.38;;
19998;SDS011;10160;50.926;4.374;2023-08-12T01:18:08;13.25;;;4.75;;
19998;SDS011;10160;50.926;4.374;2023-08-12T01:20:36;13.45;;;5.32;;
19998;SDS011;10160;50.926;4.374;2023-08-12T01:23:14;11.88;;;5.45;;
19998;SDS011;10160;50.926;4.374;2023-08-12T01:25:41;14.57;;;5.97;;
19998;SDS011;10160;50.926;4.374;2023-08-12T01:28:07;14.18;;;5.20;;
19998;SDS011;10160;50.926;4.374;2023-08-12T01:30:39;14.35;;;5.32;;
19998;SDS011;10160;50.926;4.374;2023-08-12T01:33:39;14.50;;;5.32;;
19998;SDS011;10160;50.926;4.374;2023-08-12T01:36:18;11.52;;;4.65;;
19998;SDS011;10160;50.926;4.374;2023-08-12T01:38:46;10.98;;;4.68;;
19998;SDS011;10160;50.926;4.374;2023-08-12T01:41:15;13.90;;;5.60;;
19998;SDS011;10160;50.926;4.374;2023-08-12T01:43:46;15.10;;;5.15;;
19998;SDS011;10160;50.926;4.374;2023-08-12T01:46:18;11.60;;;4.80;;
19998;SDS011;10160;50.926;4.374;2023-08-12T01:48:43;14.38;;;5.00;;
19998;SDS011;10160;50.926;4.374;2023-08-12T01:51:09;18.35;;;5.00;;
19998;SDS011;10160;50.926;4.374;2023-08-12T01:53:36;11.60;;;5.13;;
19998;SDS011;10160;50.926;4.374;2023-08-12T01:56:02;12.75;;;4.97;;
19998;SDS011;10160;50.926;4.374;2023-08-12T01:58:28;13.90;;;5.00;;
19998;SDS011;10160;50.926;4.374;2023-08-12T02:00:53;12.90;;;5.35;;
19998;SDS011;10160;50.926;4.374;2023-08-12T02:03:19;12.55;;;5.32;;
19998;SDS011;10160;50.926;4.374;2023-08-12T02:05:45;13.32;;;5.03;;
19998;SDS011;10160;50.926;4.374;2023-08-12T02:08:10;18.67;;;6.68;;
19998;SDS011;10160;50.926;4.374;2023-08-12T02:10:36;11.23;;;5.75;;
19998;SDS011;10160;50.926;4.374;2023-08-12T02:13:02;18.38;;;6.38;;
19998;SDS011;10160;50.926;4.374;2023-08-12T02:15:28;15.07;;;6.53;;
19998;SDS011;10160;50.926;4.374;2023-08-12T02:17:54;17.40;;;6.45;;
19998;SDS011;10160;50.926;4.374;2023-08-12T02:20:19;13.40;;;5.57;;
19998;SDS011;10160;50.926;4.374;2023-08-12T02:22:45;17.15;;;5.57;;
19998;SDS011;10160;50.926;4.374;2023-08-12T02:25:11;15.55;;;6.82;;
19998;SDS011;10160;50.926;4.374;2023-08-12T02:27:37;12.13;;;5.97;;
19998;SDS011;10160;50.926;4.374;2023-08-12T02:30:03;16.42;;;6.10;;
19998;SDS011;10160;50.926;4.374;2023-08-12T02:32:30;15.23;;;6.25;;
19998;SDS011;10160;50.926;4.374;2023-08-12T02:34:55;15.70;;;6.13;;
19998;SDS011;10160;50.926;4.374;2023-08-12T02:37:21;12.52;;;6.38;;
19998;SDS011;10160;50.926;4.374;2023-08-12T02:39:47;17.08;;;6.60;;
19998;SDS011;10160;50.926;4.374;2023-08-12T02:42:12;17.65;;;5.90;;
19998;SDS011;10160;50.926;4.374;2023-08-12T02:44:38;16.13;;;7.07;;
19998;SDS011;10160;50.926;4.374;2023-08-12T02:47:04;14.30;;;6.32;;
19998;SDS011;10160;50.926;4.374;2023-08-12T02:49:29;14.30;;;6.25;;
19998;SDS011;10160;50.926;4.374;2023-08-12T02:51:55;15.32;;;5.88;;
19998;SDS011;10160;50.926;4.374;2023-08-12T02:54:21;12.90;;;6.30;;
19998;SDS011;10160;50.926;4.374;2023-08-12T02:56:46;16.60;;;6.85;;
19998;SDS011;10160;50.926;4.374;2023-08-12T02:59:12;15.60;;;6.10;;
19998;SDS011;10160;50.926;4.374;2023-08-12T03:01:39;16.23;;;6.90;;
19998;SDS011;10160;50.926;4.374;2023-08-12T03:04:06;14.80;;;6.22;;
19998;SDS011;10160;50.926;4.374;2023-08-12T03:06:32;14.05;;;6.03;;
19998;SDS011;10160;50.926;4.374;2023-08-12T03:08:57;13.18;;;5.38;;
19998;SDS011;10160;50.926;4.374;2023-08-12T03:11:24;13.07;;;5.80;;
19998;SDS011;10160;50.926;4.374;2023-08-12T03:13:49;10.70;;;5.40;;
19998;SDS011;10160;50.926;4.374;2023-08-12T03:16:15;14.88;;;5.50;;
19998;SDS011;10160;50.926;4.374;2023-08-12T03:18:41;14.45;;;6.30;;
19998;SDS011;10160;50.926;4.374;2023-08-12T03:21:07;16.35;;;6.10;;
19998;SDS011;10160;50.926;4.374;2023-08-12T03:23:34;13.57;;;6.20;;
19998;SDS011;10160;50.926;4.374;2023-08-12T03:26:03;15.27;;;7.13;;
19998;SDS011;10160;50.926;4.374;2023-08-12T03:28:29;14.25;;;6.45;;
19998;SDS011;10160;50.926;4.374;2023-08-12T03:30:56;17.73;;;6.72;;
19998;SDS011;10160;50.926;4.374;2023-08-12T03:33:22;9.40;;;5.93;;
19998;SDS011;10160;50.926;4.374;2023-08-12T03:35:48;16.95;;;7.45;;
19998;SDS011;10160;50.926;4.374;2023-08-12T03:38:14;14.95;;;6.72;;
19998;SDS011;10160;50.926;4.374;2023-08-12T03:40:40;17.90;;;6.88;;
19998;SDS011;10160;50.926;4.374;2023-08-12T03:43:07;15.48;;;6.78;;
19998;SDS011;10160;50.926;4.374;2023-08-12T03:45:38;17.00;;;7.63;;
19998;SDS011;10160;50.926;4.374;2023-08-12T03:48:08;13.48;;;6.88;;
19998;SDS011;10160;50.926;4.374;2023-08-12T03:50:35;12.35;;;7.30;;
19998;SDS011;10160;50.926;4.374;2023-08-12T03:53:04;14.45;;;7.85;;
19998;SDS011;10160;50.926;4.374;2023-08-12T03:55:34;14.55;;;7.40;;
19998;SDS011;10160;50.926;4.374;2023-08-12T03:57:59;16.77;;;7.65;;
19998;SDS011;10160;50.926;4.374;2023-08-12T04:00:26;8.73;;;5.55;;
19998;SDS011;10160;50.926;4.374;2023-08-12T04:02:53;9.50;;;5.47;;
19998;SDS011;10160;50.926;4.374;2023-08-12T04:05:18;8.70;;;5.00;;
19998;SDS011;10160;50.926;4.374;2023-08-12T04:07:44;9.38;;;4.78;;
19998;SDS011;10160;50.926;4.374;2023-08-12T04:10:10;7.70;;;4.43;;
19998;SDS011;10160;50.926;4.374;2023-08-12T04:12:40;8.52;;;4.30;;
19998;SDS011;10160;50.926;4.374;2023-08-12T04:15:07;7.05;;;4.00;;
19998;SDS011;10160;50.926;4.374;2023-08-12T04:17:33;8.80;;;3.90;;
19998;SDS011;10160;50.926;4.374;2023-08-12T04:19:59;6.93;;;3.53;;
19998;SDS011;10160;50.926;4.374;2023-08-12T04:22:24;8.45;;;3.55;;
19998;SDS011;10160;50.926;4.374;2023-08-12T04:24:51;5.95;;;3.53;;
19998;SDS011;10160;50.926;4.374;2023-08-12T04:27:17;5.38;;;3.45;;
19998;SDS011;10160;50.926;4.374;2023-08-12T04:29:42;5.88;;;3.60;;
19998;SDS011;10160;50.926;4.374;2023-08-12T04:32:08;6.13;;;3.65;;
19998;SDS011;10160;50.926;4.374;2023-08-12T04:34:36;7.85;;;3.95;;
19998;SDS011;10160;50.926;4.374;2023-08-12T04:37:02;5.63;;;3.83;;
19998;SDS011;10160;50.926;4.374;2023-08-12T04:39:28;10.13;;;4.35;;
19998;SDS011;10160;50.926;4.374;2023-08-12T04:41:53;8.00;;;4.03;;
19998;SDS011;10160;50.926;4.374;2023-08-12T04:44:19;8.88;;;3.95;;
19998;SDS011;10160;50.926;4.374;2023-08-12T04:46:44;9.25;;;3.50;;
19998;SDS011;10160;50.926;4.374;2023-08-12T04:49:11;6.88;;;3.85;;
19998;SDS011;10160;50.926;4.374;2023-08-12T04:51:37;6.25;;;3.38;;
19998;SDS011;10160;50.926;4.374;2023-08-12T04:54:03;8.85;;;4.25;;
19998;SDS011;10160;50.926;4.374;2023-08-12T04:56:29;7.07;;;4.13;;
19998;SDS011;10160;50.926;4.374;2023-08-12T04:58:55;8.00;;;4.07;;
19998;SDS011;10160;50.926;4.374;2023-08-12T05:01:21;7.03;;;4.13;;
19998;SDS011;10160;50.926;4.374;2023-08-12T05:03:47;6.35;;;3.60;;
19998;SDS011;10160;50.926;4.374;2023-08-12T05:06:12;8.32;;;3.63;;
19998;SDS011;10160;50.926;4.374;2023-08-12T05:08:38;7.40;;;3.75;;
19998;SDS011;10160;50.926;4.374;2023-08-12T05:11:03;5.75;;;3.50;;
19998;SDS011;10160;50.926;4.374;2023-08-12T05:13:29;7.05;;;3.47;;
19998;SDS011;10160;50.926;4.374;2023-08-12T05:15:55;12.02;;;4.18;;
19998;SDS011;10160;50.926;4.374;2023-08-12T05:18:22;10.00;;;4.13;;
19998;SDS011;10160;50.926;4.374;2023-08-12T05:20:51;7.00;;;4.70;;
19998;SDS011;10160;50.926;4.374;2023-08-12T05:23:20;8.00;;;4.90;;
19998;SDS011;10160;50.926;4.374;2023-08-12T05:25:46;10.55;;;5.22;;
19998;SDS011;10160;50.926;4.374;2023-08-12T05:28:12;12.43;;;5.60;;
19998;SDS011;10160;50.926;4.374;2023-08-12T05:30:38;10.18;;;5.55;;
19998;SDS011;10160;50.926;4.374;2023-08-12T05:33:04;9.45;;;5.20;;
19998;SDS011;10160;50.926;4.374;2023-08-12T05:35:33;9.30;;;5.57;;
19998;SDS011;10160;50.926;4.374;2023-08-12T05:37:59;10.73;;;5.80;;
19998;SDS011;10160;50.926;4.374;2023-08-12T05:40:25;10.13;;;6.00;;
19998;SDS011;10160;50.926;4.374;2023-08-12T05:42:51;7.28;;;5.13;;
19998;SDS011;10160;50.926;4.374;2023-08-12T05:45:17;9.23;;;5.93;;
19998;SDS011;10160;50.926;4.374;2023-08-12T05:47:42;8.23;;;5.82;;
19998;SDS011;10160;50.926;4.374;2023-08-12T05:50:08;11.30;;;5.85;;
19998;SDS011;10160;50.926;4.374;2023-08-12T05:52:34;11.18;;;5.53;;
19998;SDS011;10160;50.926;4.374;2023-08-12T05:54:59;9.82;;;5.50;;
19998;SDS011;10160;50.926;4.374;2023-08-12T05:57:25;8.77;;;5.55;;
19998;SDS011;10160;50.926;4.374;2023-08-12T05:59:51;7.80;;;5.28;;
19998;SDS011;10160;50.926;4.374;2023-08-12T06:02:17;7.63;;;4.43;;
19998;SDS011;10160;50.926;4.374;2023-08-12T06:04:46;7.82;;;4.75;;
19998;SDS011;10160;50.926;4.374;2023-08-12T06:07:12;8.13;;;5.03;;
19998;SDS011;10160;50.926;4.374;2023-08-12T06:09:40;8.35;;;4.07;;
19998;SDS011;10160;50.926;4.374;2023-08-12T06:12:06;7.35;;;4.05;;
19998;SDS011;10160;50.926;4.374;2023-08-12T06:14:37;8.57;;;3.63;;
19998;SDS011;10160;50.926;4.374;2023-08-12T06:17:03;6.85;;;3.70;;
19998;SDS011;10160;50.926;4.374;2023-08-12T06:19:29;8.00;;;3.83;;
19998;SDS011;10160;50.926;4.374;2023-08-12T06:21:58;6.85;;;3.35;;
19998;SDS011;10160;50.926;4.374;2023-08-12T06:24:26;7.07;;;3.80;;
19998;SDS011;10160;50.926;4.374;2023-08-12T06:26:52;6.75;;;3.58;;
19998;SDS011;10160;50.926;4.374;2023-08-12T06:29:17;7.30;;;3.40;;
19998;SDS011;10160;50.926;4.374;2023-08-12T06:31:43;7.15;;;3.80;;
19998;SDS011;10160;50.926;4.374;2023-08-12T06:34:08;8.85;;;3.80;;
19998;SDS011;10160;50.926;4.374;2023-08-12T06:36:34;7.00;;;3.70;;
19998;SDS011;10160;50.926;4.374;2023-08-12T06:39:00;5.20;;;2.90;;
19998;SDS011;10160;50.926;4.374;2023-08-12T06:41:25;5.93;;;3.10;;
19998;SDS011;10160;50.926;4.374;2023-08-12T06:43:51;5.10;;;2.80;;
19998;SDS011;10160;50.926;4.374;2023-08-12T06:46:17;6.20;;;2.95;;
19998;SDS011;10160;50.926;4.374;2023-08-12T06:48:42;5.60;;;3.10;;
19998;SDS011;10160;50.926;4.374;2023-08-12T06:51:08;7.07;;;2.47;;
19998;SDS011;10160;50.926;4.374;2023-08-12T06:53:36;6.00;;;2.65;;
19998;SDS011;10160;50.926;4.374;2023-08-12T06:56:03;6.18;;;2.40;;
19998;SDS011;10160;50.926;4.374;2023-08-12T06:58:29;5.68;;;2.15;;
19998;SDS011;10160;50.926;4.374;2023-08-12T07:00:54;4.97;;;2.08;;
19998;SDS011;10160;50.926;4.374;2023-08-12T07:03:24;4.53;;;2.00;;
19998;SDS011;10160;50.926;4.374;2023-08-12T07:05:51;4.47;;;2.13;;
19998;SDS011;10160;50.926;4.374;2023-08-12T07:08:18;5.75;;;2.85;;
19998;SDS011;10160;50.926;4.374;2023-08-12T07:10:43;6.60;;;3.10;;
19998;SDS011;10160;50.926;4.374;2023-08-12T07:13:11;7.50;;;3.30;;
19998;SDS011;10160;50.926;4.374;2023-08-12T07:15:37;6.78;;;2.83;;
19998;SDS011;10160;50.926;4.374;2023-08-12T07:18:03;7.78;;;3.42;;
19998;SDS011;10160;50.926;4.374;2023-08-12T07:20:29;6.50;;;2.72;;
19998;SDS011;10160;50.926;4.374;2023-08-12T07:22:54;5.20;;;2.15;;
19998;SDS011;10160;50.926;4.374;2023-08-12T07:25:21;5.30;;;2.00;;
19998;SDS011;10160;50.926;4.374;2023-08-12T07:27:46;4.53;;;1.90;;
19998;SDS011;10160;50.926;4.374;2023-08-12T07:30:12;5.18;;;1.65;;
19998;SDS011;10160;50.926;4.374;2023-08-12T07:32:37;4.22;;;1.90;;
19998;SDS011;10160;50.926;4.374;2023-08-12T07:35:04;4.22;;;1.77;;
19998;SDS011;10160;50.926;4.374;2023-08-12T07:37:30;7.78;;;2.00;;
19998;SDS011;10160;50.926;4.374;2023-08-12T07:40:00;3.70;;;2.10;;
19998;SDS011;10160;50.926;4.374;2023-08-12T07:42:25;4.30;;;1.98;;
19998;SDS011;10160;50.926;4.374;2023-08-12T07:44:51;5.15;;;2.17;;
19998;SDS011;10160;50.926;4.374;2023-08-12T07:47:17;4.57;;;2.20;;
19998;SDS011;10160;50.926;4.374;2023-08-12T07:49:43;4.82;;;2.25;;
19998;SDS011;10160;50.926;4.374;2023-08-12T07:52:09;6.47;;;2.78;;
19998;SDS011;10160;50.926;4.374;2023-08-12T07:54:35;5.13;;;2.40;;
19998;SDS011;10160;50.926;4.374;2023-08-12T07:57:01;5.65;;;2.45;;
19998;SDS011;10160;50.926;4.374;2023-08-12T07:59:26;6.20;;;2.30;;
19998;SDS011;10160;50.926;4.374;2023-08-12T08:01:52;5.05;;;2.60;;
19998;SDS011;10160;50.926;4.374;2023-08-12T08:04:18;5.90;;;2.65;;
19998;SDS011;10160;50.926;4.374;2023-08-12T08:06:43;5.57;;;2.42;;
19998;SDS011;10160;50.926;4.374;2023-08-12T08:09:09;4.90;;;2.58;;
19998;SDS011;10160;50.926;4.374;2023-08-12T08:11:35;4.43;;;2.35;;
19998;SDS011;10160;50.926;4.374;2023-08-12T08:14:01;5.85;;;2.70;;
19998;SDS011;10160;50.926;4.374;2023-08-12T08:16:27;5.00;;;2.85;;
19998;SDS011;10160;50.926;4.374;2023-08-12T08:18:52;6.97;;;3.25;;
19998;SDS011;10160;50.926;4.374;2023-08-12T08:21:18;5.75;;;3.42;;
19998;SDS011;10160;50.926;4.374;2023-08-12T08:23:44;6.80;;;3.33;;
19998;SDS011;10160;50.926;4.374;2023-08-12T08:26:13;8.85;;;3.92;;
19998;SDS011;10160;50.926;4.374;2023-08-12T08:28:40;5.90;;;4.05;;
19998;SDS011;10160;50.926;4.374;2023-08-12T08:31:06;8.18;;;4.03;;
19998;SDS011;10160;50.926;4.374;2023-08-12T08:33:32;6.15;;;3.83;;
19998;SDS011;10160;50.926;4.374;2023-08-12T08:35:58;8.43;;;4.40;;
19998;SDS011;10160;50.926;4.374;2023-08-12T08:38:23;8.10;;;4.63;;
19998;SDS011;10160;50.926;4.374;2023-08-12T08:40:49;5.82;;;4.05;;
19998;SDS011;10160;50.926;4.374;2023-08-12T08:43:18;6.70;;;4.20;;
19998;SDS011;10160;50.926;4.374;2023-08-12T08:45:47;7.80;;;4.35;;
19998;SDS011;10160;50.926;4.374;2023-08-12T08:48:16;9.48;;;4.93;;
19998;SDS011;10160;50.926;4.374;2023-08-12T08:50:42;8.70;;;4.18;;
19998;SDS011;10160;50.926;4.374;2023-08-12T08:53:16;9.55;;;4.85;;
19998;SDS011;10160;50.926;4.374;2023-08-12T08:55:43;7.78;;;4.68;;
19998;SDS011;10160;50.926;4.374;2023-08-12T08:58:09;6.60;;;3.78;;
19998;SDS011;10160;50.926;4.374;2023-08-12T09:00:35;9.55;;;3.83;;
19998;SDS011;10160;50.926;4.374;2023-08-12T09:03:03;8.82;;;3.90;;
19998;SDS011;10160;50.926;4.374;2023-08-12T09:05:31;6.68;;;3.63;;
19998;SDS011;10160;50.926;4.374;2023-08-12T09:07:57;7.45;;;3.28;;
19998;SDS011;10160;50.926;4.374;2023-08-12T09:10:24;10.63;;;3.58;;
19998;SDS011;10160;50.926;4.374;2023-08-12T09:12:55;8.32;;;2.47;;
19998;SDS011;10160;50.926;4.374;2023-08-12T09:15:21;8.18;;;2.42;;
19998;SDS011;10160;50.926;4.374;2023-08-12T09:17:50;6.97;;;2.10;;
19998;SDS011;10160;50.926;4.374;2023-08-12T09:20:19;9.88;;;2.13;;
19998;SDS011;10160;50.926;4.374;2023-08-12T09:22:45;7.28;;;2.08;;
19998;SDS011;10160;50.926;4.374;2023-08-12T09:25:10;10.63;;;2.28;;
19998;SDS011;10160;50.926;4.374;2023-08-12T09:27:36;14.70;;;1.95;;
19998;SDS011;10160;50.926;4.374;2023-08-12T09:30:08;6.57;;;1.67;;
19998;SDS011;10160;50.926;4.374;2023-08-12T09:32:34;7.15;;;1.73;;
19998;SDS011;10160;50.926;4.374;2023-08-12T09:35:10;6.32;;;1.90;;
19998;SDS011;10160;50.926;4.374;2023-08-12T09:37:41;6.32;;;1.58;;
19998;SDS011;10160;50.926;4.374;2023-08-12T09:40:07;9.07;;;1.83;;
19998;SDS011;10160;50.926;4.374;2023-08-12T09:42:42;12.85;;;2.35;;
19998;SDS011;10160;50.926;4.374;2023-08-12T09:45:10;9.18;;;1.98;;
19998;SDS011;10160;50.926;4.374;2023-08-12T09:47:39;7.57;;;1.70;;
19998;SDS011;10160;50.926;4.374;2023-08-12T09:50:09;9.55;;;2.22;;
19998;SDS011;10160;50.926;4.374;2023-08-12T09:52:35;11.85;;;2.05;;
19998;SDS011;10160;50.926;4.374;2023-08-12T09:55:01;8.55;;;1.98;;
19998;SDS011;10160;50.926;4.374;2023-08-12T09:57:30;6.90;;;2.22;;
19998;SDS011;10160;50.926;4.374;2023-08-12T10:00:08;7.45;;;2.60;;
19998;SDS011;10160;50.926;4.374;2023-08-12T10:02:42;6.75;;;2.10;;
19998;SDS011;10160;50.926;4.374;2023-08-12T10:05:09;8.13;;;2.15;;
19998;SDS011;10160;50.926;4.374;2023-08-12T10:07:38;12.10;;;1.83;;
19998;SDS011;10160;50.926;4.374;2023-08-12T10:10:05;6.25;;;1.70;;
19998;SDS011;10160;50.926;4.374;2023-08-12T10:12:32;6.05;;;1.63;;
19998;SDS011;10160;50.926;4.374;2023-08-12T10:15:11;11.27;;;1.65;;
19998;SDS011;10160;50.926;4.374;2023-08-12T10:17:40;12.85;;;1.70;;
19998;SDS011;10160;50.926;4.374;2023-08-12T10:20:11;7.22;;;1.63;;
19998;SDS011;10160;50.926;4.374;2023-08-12T10:22:38;6.75;;;1.50;;
19998;SDS011;10160;50.926;4.374;2023-08-12T10:25:06;12.35;;;1.73;;
19998;SDS011;10160;50.926;4.374;2023-08-12T10:27:36;9.77;;;2.13;;
19998;SDS011;10160;50.926;4.374;2023-08-12T10:30:12;7.78;;;1.60;;
19998;SDS011;10160;50.926;4.374;2023-08-12T10:32:38;5.53;;;1.70;;
19998;SDS011;10160;50.926;4.374;2023-08-12T10:35:04;5.68;;;1.48;;
19998;SDS011;10160;50.926;4.374;2023-08-12T10:37:32;5.65;;;1.30;;
19998;SDS011;10160;50.926;4.374;2023-08-12T10:42:47;7.80;;;1.67;;
19998;SDS011;10160;50.926;4.374;2023-08-12T10:45:22;6.72;;;1.48;;
19998;SDS011;10160;50.926;4.374;2023-08-12T10:50:17;6.88;;;2.00;;
19998;SDS011;10160;50.926;4.374;2023-08-12T10:52:43;7.53;;;1.88;;
19998;SDS011;10160;50.926;4.374;2023-08-12T10:55:17;6.82;;;1.58;;
19998;SDS011;10160;50.926;4.374;2023-08-12T10:57:44;10.20;;;1.75;;
19998;SDS011;10160;50.926;4.374;2023-08-12T11:00:14;9.52;;;1.85;;
19998;SDS011;10160;50.926;4.374;2023-08-12T11:02:49;4.85;;;1.10;;
19998;SDS011;10160;50.926;4.374;2023-08-12T11:05:19;6.18;;;1.50;;
19998;SDS011;10160;50.926;4.374;2023-08-12T11:07:58;5.20;;;1.25;;
19998;SDS011;10160;50.926;4.374;2023-08-12T11:10:27;8.63;;;1.80;;
19998;SDS011;10160;50.926;4.374;2023-08-12T11:12:58;7.65;;;1.73;;
19998;SDS011;10160;50.926;4.374;2023-08-12T11:17:58;6.05;;;1.52;;
19998;SDS011;10160;50.926;4.374;2023-08-12T11:20:27;6.93;;;1.50;;
19998;SDS011;10160;50.926;4.374;2023-08-12T11:22:56;8.32;;;1.75;;
19998;SDS011;10160;50.926;4.374;2023-08-12T11:25:29;7.35;;;1.42;;
19998;SDS011;10160;50.926;4.374;2023-08-12T11:27:59;7.05;;;1.70;;
19998;SDS011;10160;50.926;4.374;2023-08-12T11:30:25;5.57;;;1.75;;
19998;SDS011;10160;50.926;4.374;2023-08-12T11:32:54;6.15;;;1.20;;
19998;SDS011;10160;50.926;4.374;2023-08-12T11:35:22;7.43;;;1.52;;
19998;SDS011;10160;50.926;4.374;2023-08-12T11:37:49;5.28;;;1.60;;
19998;SDS011;10160;50.926;4.374;2023-08-12T11:40:20;8.07;;;1.75;;
19998;SDS011;10160;50.926;4.374;2023-08-12T11:42:46;4.82;;;1.17;;
19998;SDS011;10160;50.926;4.374;2023-08-12T11:45:19;6.35;;;1.10;;
19998;SDS011;10160;50.926;4.374;2023-08-12T11:47:46;5.60;;;1.08;;
19998;SDS011;10160;50.926;4.374;2023-08-12T11:50:24;5.63;;;1.20;;
19998;SDS011;10160;50.926;4.374;2023-08-12T11:52:55;5.38;;;1.40;;
19998;SDS011;10160;50.926;4.374;2023-08-12T11:55:21;11.65;;;1.45;;
19998;SDS011;10160;50.926;4.374;2023-08-12T11:57:47;6.70;;;1.35;;
19998;SDS011;10160;50.926;4.374;2023-08-12T12:00:13;8.13;;;1.63;;
19998;SDS011;10160;50.926;4.374;2023-08-12T12:02:39;5.50;;;1.30;;
19998;SDS011;10160;50.926;4.374;2023-08-12T12:05:12;7.05;;;1.08;;
19998;SDS011;10160;50.926;4.374;2023-08-12T12:07:42;6.80;;;1.20;;
19998;SDS011;10160;50.926;4.374;2023-08-12T12:10:12;5.00;;;1.10;;
19998;SDS011;10160;50.926;4.374;2023-08-12T12:12:45;10.57;;;1.50;;
19998;SDS011;10160;50.926;4.374;2023-08-12T12:15:12;5.30;;;1.15;;
19998;SDS011;10160;50.926;4.374;2023-08-12T12:17:40;6.82;;;1.38;;
19998;SDS011;10160;50.926;4.374;2023-08-12T12:20:06;4.63;;;1.05;;
19998;SDS011;10160;50.926;4.374;2023-08-12T12:22:38;8.20;;;1.50;;
19998;SDS011;10160;50.926;4.374;2023-08-12T12:25:14;6.15;;;1.23;;
19998;SDS011;10160;50.926;4.374;2023-08-12T12:27:42;6.40;;;1.10;;
19998;SDS011;10160;50.926;4.374;2023-08-12T12:30:10;6.78;;;1.48;;
19998;SDS011;10160;50.926;4.374;2023-08-12T12:32:37;5.60;;;1.10;;
19998;SDS011;10160;50.926;4.374;2023-08-12T12:35:03;6.75;;;1.40;;
19998;SDS011;10160;50.926;4.374;2023-08-12T12:37:32;7.88;;;1.30;;
19998;SDS011;10160;50.926;4.374;2023-08-12T12:39:57;3.45;;;0.93;;
19998;SDS011;10160;50.926;4.374;2023-08-12T12:42:23;6.40;;;1.40;;
19998;SDS011;10160;50.926;4.374;2023-08-12T12:44:55;6.10;;;1.10;;
19998;SDS011;10160;50.926;4.374;2023-08-12T12:47:24;6.22;;;1.42;;
19998;SDS011;10160;50.926;4.374;2023-08-12T12:49:49;4.68;;;1.10;;
19998;SDS011;10160;50.926;4.374;2023-08-12T12:52:18;7.90;;;1.45;;
19998;SDS011;10160;50.926;4.374;2023-08-12T12:54:49;6.75;;;1.35;;
19998;SDS011;10160;50.926;4.374;2023-08-12T12:57:15;5.70;;;1.10;;
19998;SDS011;10160;50.926;4.374;2023-08-12T12:59:41;11.55;;;1.38;;
19998;SDS011;10160;50.926;4.374;2023-08-12T13:02:06;7.30;;;1.40;;
19998;SDS011;10160;50.926;4.374;2023-08-12T13:04:32;8.50;;;1.25;;
19998;SDS011;10160;50.926;4.374;2023-08-12T13:06:58;5.88;;;1.08;;
19998;SDS011;10160;50.926;4.374;2023-08-12T13:09:24;5.70;;;1.20;;
19998;SDS011;10160;50.926;4.374;2023-08-12T13:11:49;5.65;;;1.02;;
19998;SDS011;10160;50.926;4.374;2023-08-12T13:14:15;6.22;;;1.33;;
19998;SDS011;10160;50.926;4.374;2023-08-12T13:16:44;7.60;;;1.13;;
19998;SDS011;10160;50.926;4.374;2023-08-12T13:19:09;5.75;;;1.20;;
19998;SDS011;10160;50.926;4.374;2023-08-12T13:21:35;7.03;;;1.30;;
19998;SDS011;10160;50.926;4.374;2023-08-12T13:24:00;7.47;;;1.15;;
19998;SDS011;10160;50.926;4.374;2023-08-12T13:26:28;7.13;;;1.33;;
19998;SDS011;10160;50.926;4.374;2023-08-12T13:28:54;6.63;;;1.33;;
19998;SDS011;10160;50.926;4.374;2023-08-12T13:31:20;7.07;;;1.33;;
19998;SDS011;10160;50.926;4.374;2023-08-12T13:33:45;6.30;;;1.70;;
19998;SDS011;10160;50.926;4.374;2023-08-12T13:36:11;5.90;;;1.52;;
19998;SDS011;10160;50.926;4.374;2023-08-12T13:38:37;9.70;;;1.77;;
19998;SDS011;10160;50.926;4.374;2023-08-12T13:41:02;4.82;;;1.10;;
19998;SDS011;10160;50.926;4.374;2023-08-12T13:43:31;4.78;;;1.33;;
19998;SDS011;10160;50.926;4.374;2023-08-12T13:45:57;11.00;;;1.60;;
19998;SDS011;10160;50.926;4.374;2023-08-12T13:48:25;5.32;;;1.42;;
19998;SDS011;10160;50.926;4.374;2023-08-12T13:50:54;8.15;;;1.75;;
19998;SDS011;10160;50.926;4.374;2023-08-12T13:53:20;8.50;;;1.58;;
19998;SDS011;10160;50.926;4.374;2023-08-12T13:55:48;6.20;;;1.45;;
19998;SDS011;10160;50.926;4.374;2023-08-12T13:58:17;4.20;;;1.20;;
19998;SDS011;10160;50.926;4.374;2023-08-12T14:00:45;6.07;;;1.70;;
19998;SDS011;10160;50.926;4.374;2023-08-12T14:03:11;8.18;;;1.48;;
19998;SDS011;10160;50.926;4.374;2023-08-12T14:05:37;4.65;;;1.08;;
19998;SDS011;10160;50.926;4.374;2023-08-12T14:08:02;6.60;;;1.70;;
19998;SDS011;10160;50.926;4.374;2023-08-12T14:10:31;7.80;;;1.60;;
19998;SDS011;10160;50.926;4.374;2023-08-12T14:12:57;6.88;;;1.52;;
19998;SDS011;10160;50.926;4.374;2023-08-12T14:15:22;9.63;;;1.65;;
19998;SDS011;10160;50.926;4.374;2023-08-12T14:17:48;6.85;;;1.50;;
19998;SDS011;10160;50.926;4.374;2023-08-12T14:20:14;4.70;;;1.27;;
19998;SDS011;10160;50.926;4.374;2023-08-12T14:22:40;7.45;;;1.40;;
19998;SDS011;10160;50.926;4.374;2023-08-12T14:25:06;7.22;;;1.30;;
19998;SDS011;10160;50.926;4.374;2023-08-12T14:27:36;6.57;;;1.50;;
19998;SDS011;10160;50.926;4.374;2023-08-12T14:30:02;7.38;;;1.50;;
19998;SDS011;10160;50.926;4.374;2023-08-12T14:32:28;7.95;;;1.67;;
19998;SDS011;10160;50.926;4.374;2023-08-12T14:34:53;9.30;;;1.98;;
19998;SDS011;10160;50.926;4.374;2023-08-12T14:37:19;9.23;;;1.50;;
19998;SDS011;10160;50.926;4.374;2023-08-12T14:39:45;9.45;;;1.73;;
19998;SDS011;10160;50.926;4.374;2023-08-12T14:42:11;7.25;;;1.45;;
19998;SDS011;10160;50.926;4.374;2023-08-12T14:44:37;7.82;;;1.92;;
19998;SDS011;10160;50.926;4.374;2023-08-12T14:47:02;7.47;;;1.40;;
19998;SDS011;10160;50.926;4.374;2023-08-12T14:49:29;9.23;;;1.50;;
19998;SDS011;10160;50.926;4.374;2023-08-12T14:51:57;7.95;;;1.55;;
19998;SDS011;10160;50.926;4.374;2023-08-12T14:54:22;6.30;;;1.70;;